Time;durP1;ratioP1;P1;durP2;ratioP2;P2;SDS_P1;SDS_P2;PMS_P1;PMS_P2;Temp;Humidity;BMP_temperature;BMP_pressure;BME280_temperature;BME280_humidity;BME280_pressure;Samples;Min_cycle;Max_cycle;Signal;HPM_P1;HPM_P2
2022/01/14 00:01:57;;;;;;;39.83;26.50;;;;;;;3.32;79.65;102317.34;10436927;28;20534;-60
2022/01/14 00:06:58;;;;;;;39.17;26.13;;;;;;;3.15;80.03;102293.97;10425376;28;20056;-62
2022/01/14 00:12:03;;;;;;;37.35;24.45;;;;;;;3.14;80.08;102297.47;10426543;28;20048;-60
2022/01/14 00:17:07;;;;;;;36.83;23.15;;;;;;;3.03;80.30;102307.31;10436751;28;20072;-64
2022/01/14 00:22:14;;;;;;;35.37;23.27;;;;;;;2.97;80.53;102305.66;10431032;28;20063;-61
2022/01/14 00:32:49;;;;;;;34.38;22.55;;;;;;;2.91;80.67;102291.72;10429110;28;20049;-60
2022/01/14 00:37:51;;;;;;;38.97;25.30;;;;;;;2.83;81.30;102276.06;10437207;28;20114;-62
2022/01/14 00:42:53;;;;;;;40.75;25.58;;;;;;;2.88;81.52;102275.97;10427749;28;20768;-61
2022/01/14 00:47:54;;;;;;;40.60;24.95;;;;;;;2.86;81.03;102259.38;10433949;28;20045;-60
2022/01/14 00:52:56;;;;;;;39.85;25.15;;;;;;;2.89;80.87;102252.28;10434904;28;20049;-62
2022/01/14 01:03:01;;;;;;;41.75;23.67;;;;;;;3.22;80.15;102262.28;10427283;28;20060;-60
2022/01/14 01:08:08;;;;;;;37.55;24.95;;;;;;;3.19;79.95;102243.00;10431140;28;20041;-60
2022/01/14 01:13:17;;;;;;;48.22;25.85;;;;;;;3.16;80.34;102257.97;10429829;28;20128;-60
2022/01/14 01:18:20;;;;;;;39.83;24.90;;;;;;;2.91;80.56;102245.25;10435063;28;20137;-62
2022/01/14 01:23:21;;;;;;;40.50;25.77;;;;;;;2.99;80.60;102256.50;10426283;28;20045;-60
2022/01/14 01:28:23;;;;;;;37.88;25.05;;;;;;;2.87;80.86;102247.94;10441409;28;20124;-60
2022/01/14 01:33:24;;;;;;;51.35;27.77;;;;;;;2.95;80.80;102253.94;10430913;28;20133;-60
2022/01/14 01:38:26;;;;;;;38.38;24.75;;;;;;;2.87;81.20;102234.78;10422492;28;20128;-61
2022/01/14 01:43:29;;;;;;;40.90;25.55;;;;;;;2.99;81.38;102250.38;10434843;28;20049;-61
2022/01/14 01:48:30;;;;;;;43.33;26.55;;;;;;;2.95;81.25;102243.44;10440599;28;20055;-61
2022/01/14 01:53:31;;;;;;;45.70;27.02;;;;;;;3.01;81.27;102259.09;10435818;28;20530;-61
2022/01/14 01:58:33;;;;;;;41.88;26.48;;;;;;;2.80;82.03;102229.63;10422326;28;20051;-61
2022/01/14 02:03:36;;;;;;;56.15;28.13;;;;;;;2.88;81.79;102241.78;10429763;28;20072;-60
2022/01/14 02:08:37;;;;;;;40.47;25.02;;;;;;;2.74;82.42;102232.34;10446564;28;20070;-63
2022/01/14 02:13:39;;;;;;;38.33;23.52;;;;;;;2.72;82.80;102247.31;10427316;28;20075;-62
2022/01/14 02:29:21;;;;;;;37.53;22.85;;;;;;;2.82;82.40;102222.59;10449144;28;20052;-61
2022/01/14 02:34:22;;;;;;;37.67;22.42;;;;;;;2.67;82.62;102214.94;10435905;28;20055;-60
2022/01/14 02:39:24;;;;;;;39.42;22.30;;;;;;;2.62;83.12;102214.16;10431675;28;20071;-60
2022/01/14 02:44:28;;;;;;;46.03;22.90;;;;;;;2.71;82.54;102214.00;10443228;28;20041;-60
2022/01/14 02:49:31;;;;;;;36.10;22.00;;;;;;;2.68;82.97;102207.94;10440493;28;20131;-60
2022/01/14 02:54:41;;;;;;;36.85;21.23;;;;;;;2.64;82.95;102212.34;10440242;28;20072;-61
2022/01/14 02:59:43;;;;;;;35.85;21.38;;;;;;;2.56;83.07;102193.22;10446218;28;20737;-61
2022/01/14 03:04:46;;;;;;;36.38;22.83;;;;;;;2.69;82.88;102194.75;10444152;28;20103;-60
2022/01/14 03:09:47;;;;;;;36.22;21.77;;;;;;;2.54;83.10;102185.34;10437195;28;20059;-61
2022/01/14 03:14:49;;;;;;;31.58;20.10;;;;;;;2.67;83.48;102188.63;10427764;28;20053;-60
2022/01/14 03:19:50;;;;;;;35.90;21.58;;;;;;;2.90;82.63;102192.63;10440269;28;20047;-61
2022/01/14 03:29:53;;;;;;;34.95;19.80;;;;;;;2.85;81.84;102191.84;10431395;28;20879;-60
2022/01/14 03:34:54;;;;;;;29.48;18.42;;;;;;;2.81;82.34;102185.78;10436402;28;20063;-59
2022/01/14 03:39:56;;;;;;;34.70;18.80;;;;;;;2.79;82.36;102177.94;10440904;28;20685;-60
2022/01/14 03:44:57;;;;;;;37.75;19.13;;;;;;;2.72;81.85;102192.06;10431978;28;20473;-59
2022/01/14 03:49:59;;;;;;;30.58;18.40;;;;;;;2.52;82.59;102170.50;10438852;28;20337;-60
2022/01/14 03:55:00;;;;;;;32.88;19.35;;;;;;;2.57;83.06;102163.41;10432026;28;20053;-60
2022/01/14 04:00:20;;;;;;;34.55;19.08;;;;;;;2.59;83.17;102169.50;10442346;28;20128;-60
2022/01/14 04:05:21;;;;;;;32.20;20.20;;;;;;;2.54;83.02;102156.44;10431194;28;20063;-60
2022/01/14 04:10:25;;;;;;;33.80;17.88;;;;;;;2.63;82.95;102160.69;10435970;28;20534;-59
2022/01/14 04:15:43;;;;;;;66.20;18.77;;;;;;;2.49;82.62;102166.13;10435739;28;20045;-60
2022/01/14 04:20:50;;;;;;;28.92;17.38;;;;;;;2.38;84.15;102165.47;10435548;28;20414;-60
2022/01/14 04:25:53;;;;;;;24.67;16.90;;;;;;;2.44;84.11;102158.31;10430694;28;20068;-62
2022/01/14 04:30:55;;;;;;;32.60;17.83;;;;;;;2.52;83.38;102149.47;10434671;28;20853;-60
2022/01/14 04:35:59;;;;;;;33.50;15.45;;;;;;;2.32;83.25;102141.91;10441942;28;20040;-61
2022/01/14 04:41:01;;;;;;;24.95;14.32;;;;;;;2.11;84.62;102139.56;10429467;28;20102;-60
2022/01/14 04:51:10;;;;;;;22.27;14.67;;;;;;;2.41;83.42;102121.59;10441527;28;20055;-61
2022/01/14 04:56:12;;;;;;;24.17;14.40;;;;;;;2.31;82.79;102098.97;10430561;28;20136;-61
2022/01/14 05:01:17;;;;;;;24.05;14.57;;;;;;;2.27;82.89;102108.66;10433622;28;20075;-60
2022/01/14 05:06:18;;;;;;;19.42;12.60;;;;;;;2.15;83.44;102106.25;10427857;28;20049;-60
2022/01/14 05:11:24;;;;;;;38.38;15.02;;;;;;;2.29;83.06;102106.88;10446412;23;20420;-62
2022/01/14 05:16:25;;;;;;;18.95;13.43;;;;;;;2.41;82.40;102110.22;10440727;28;20048;-60
2022/01/14 05:21:27;;;;;;;22.63;14.13;;;;;;;2.34;81.73;102112.06;10443612;28;20045;-60
2022/01/14 05:26:28;;;;;;;27.25;12.00;;;;;;;2.32;81.67;102118.25;10437193;28;20152;-61
2022/01/14 05:31:42;;;;;;;20.08;12.13;;;;;;;2.26;81.81;102116.59;10439797;28;20059;-66
2022/01/14 05:36:44;;;;;;;23.38;13.60;;;;;;;2.33;81.77;102112.97;10433883;28;20494;-60
2022/01/14 05:41:47;;;;;;;19.00;12.43;;;;;;;2.13;81.38;102092.25;10448727;28;20068;-62
2022/01/14 05:46:48;;;;;;;21.67;13.68;;;;;;;2.26;81.10;102111.31;10443366;28;20348;-61
2022/01/14 05:51:50;;;;;;;20.40;11.88;;;;;;;2.33;80.26;102105.09;10445857;28;20045;-61
2022/01/14 05:56:51;;;;;;;17.23;11.90;;;;;;;2.24;80.92;102113.97;10445026;28;20064;-61
2022/01/14 06:01:53;;;;;;;18.67;12.05;;;;;;;2.37;80.41;102114.66;10434044;28;20057;-61
2022/01/14 06:06:54;;;;;;;18.88;11.32;;;;;;;2.44;80.07;102121.53;10457487;28;20059;-62
2022/01/14 06:11:56;;;;;;;18.83;11.30;;;;;;;2.41;79.82;102121.59;10448078;28;20048;-61
2022/01/14 06:16:58;;;;;;;16.83;11.10;;;;;;;2.17;80.44;102127.25;10451298;28;20103;-61
2022/01/14 06:22:00;;;;;;;20.10;13.02;;;;;;;2.14;80.50;102127.28;10448131;28;20053;-64
2022/01/14 06:27:02;;;;;;;18.33;12.13;;;;;;;2.13;80.64;102108.00;10454382;28;20163;-61
2022/01/14 06:32:03;;;;;;;19.40;12.23;;;;;;;2.01;81.24;102106.47;10456765;28;20048;-61
2022/01/14 06:37:05;;;;;;;19.63;12.80;;;;;;;2.21;80.65;102108.78;10449006;28;20139;-61
2022/01/14 06:42:07;;;;;;;20.52;12.23;;;;;;;2.24;80.34;102113.97;10448902;28;20103;-61
2022/01/14 06:47:08;;;;;;;18.15;11.70;;;;;;;2.19;80.40;102126.34;10452966;28;20120;-61
2022/01/14 06:52:10;;;;;;;16.63;11.27;;;;;;;2.17;80.72;102130.72;10453400;28;20209;-61
2022/01/14 06:57:12;;;;;;;18.90;12.60;;;;;;;2.18;80.21;102123.69;10455651;28;20098;-62
2022/01/14 07:02:13;;;;;;;19.08;12.55;;;;;;;2.14;81.66;102114.16;10445367;28;20052;-57
2022/01/14 07:07:15;;;;;;;24.42;12.50;;;;;;;2.19;79.87;102121.09;10456398;28;20575;-61
2022/01/14 07:12:16;;;;;;;18.45;12.07;;;;;;;2.06;80.70;102127.41;10457083;28;20056;-61
2022/01/14 07:17:18;;;;;;;20.58;12.57;;;;;;;2.20;80.31;102128.06;10454723;28;20131;-61
2022/01/14 07:22:20;;;;;;;20.80;13.55;;;;;;;2.15;80.44;102129.00;10453064;28;20142;-61
2022/01/14 07:27:22;;;;;;;19.23;12.52;;;;;;;2.06;80.22;102125.63;10454093;28;20597;-61
2022/01/14 07:32:23;;;;;;;21.75;12.98;;;;;;;1.84;80.98;102121.59;10446750;28;20198;-61
2022/01/14 07:37:25;;;;;;;23.17;13.27;;;;;;;1.66;81.99;102130.59;10453787;28;20052;-61
2022/01/14 07:42:26;;;;;;;20.98;12.38;;;;;;;1.77;82.32;102136.56;10453715;28;20058;-61
2022/01/14 07:47:28;;;;;;;20.70;13.23;;;;;;;1.88;81.74;102137.28;10454327;28;20110;-61
2022/01/14 07:52:30;;;;;;;18.35;11.70;;;;;;;1.86;81.82;102144.34;10449627;28;20068;-61
2022/01/14 07:57:31;;;;;;;24.25;13.75;;;;;;;1.96;81.63;102144.19;10444771;28;20139;-61
2022/01/14 08:02:33;;;;;;;19.63;13.07;;;;;;;1.99;81.38;102134.50;10440889;28;20521;-61
2022/01/14 08:07:43;;;;;;;20.77;12.23;;;;;;;1.96;81.78;102138.94;10446418;28;20648;-60
2022/01/14 08:12:46;;;;;;;21.25;13.60;;;;;;;2.08;81.23;102138.75;10442949;28;20048;-61
2022/01/14 08:17:47;;;;;;;18.52;12.07;;;;;;;2.11;81.01;102115.91;10446616;28;20128;-61
2022/01/14 08:22:49;;;;;;;19.58;12.77;;;;;;;2.16;80.46;102115.00;10445960;28;20047;-61
2022/01/14 08:27:50;;;;;;;19.88;11.88;;;;;;;2.14;79.97;102115.00;10447699;28;20093;-61
2022/01/14 08:32:52;;;;;;;20.73;11.57;;;;;;;2.07;80.02;102116.00;10443205;28;20096;-60
2022/01/14 08:37:54;;;;;;;19.08;12.35;;;;;;;2.04;80.06;102124.81;10447088;28;20135;-61
2022/01/14 08:42:55;;;;;;;17.73;11.98;;;;;;;2.07;80.28;102123.88;10440649;28;20138;-60
2022/01/14 08:47:57;;;;;;;18.67;11.60;;;;;;;2.25;79.84;102130.59;10440604;28;20040;-63
2022/01/14 08:52:59;;;;;;;23.88;13.27;;;;;;;2.16;78.97;102128.13;10442423;28;20134;-61
2022/01/14 08:58:03;;;;;;;17.77;11.95;;;;;;;1.89;79.88;102127.63;10434266;28;20069;-61
2022/01/14 09:03:05;;;;;;;17.90;11.82;;;;;;;1.80;80.37;102127.78;10431958;28;20044;-62
2022/01/14 09:08:07;;;;;;;16.27;11.40;;;;;;;2.05;80.23;102129.16;10439925;28;20048;-61
2022/01/14 09:13:08;;;;;;;15.38;11.52;;;;;;;1.88;79.40;102139.06;10440393;28;20135;-60
2022/01/14 09:18:10;;;;;;;13.02;9.77;;;;;;;1.97;79.04;102112.66;10442761;28;20040;-61
2022/01/14 09:23:16;;;;;;;13.95;11.18;;;;;;;1.92;78.69;102117.09;10444235;28;20186;-60
2022/01/14 09:28:17;;;;;;;14.90;11.40;;;;;;;1.92;78.89;102109.22;10442710;28;20198;-60
2022/01/14 09:33:20;;;;;;;17.00;11.18;;;;;;;1.98;78.80;102116.13;10446911;28;20151;-60
2022/01/14 09:38:22;;;;;;;19.55;13.27;;;;;;;2.00;78.39;102120.47;10436824;28;20059;-61
2022/01/14 09:43:24;;;;;;;14.35;10.82;;;;;;;2.05;78.88;102137.03;10427834;28;20118;-60
2022/01/14 09:48:35;;;;;;;15.13;10.48;;;;;;;2.19;78.19;102130.69;10430248;28;20660;-61
2022/01/14 09:53:37;;;;;;;17.63;11.65;;;;;;;2.31;77.39;102143.66;10432474;28;20071;-61
2022/01/14 09:58:41;;;;;;;16.38;12.05;;;;;;;2.30;77.84;102137.53;10438841;28;20121;-60
2022/01/14 10:03:54;;;;;;;17.77;14.07;;;;;;;2.36;76.83;102133.94;10432201;28;21083;-61
2022/01/14 10:09:07;;;;;;;19.60;14.82;;;;;;;2.51;76.69;102142.44;10437944;28;20521;-63
2022/01/14 10:14:20;;;;;;;19.70;15.10;;;;;;;2.37;75.90;102134.81;10432886;28;20879;-59
2022/01/14 10:19:24;;;;;;;15.40;12.85;;;;;;;2.51;76.35;102131.94;10438648;28;20048;-59
2022/01/14 10:24:30;;;;;;;19.60;13.03;;;;;;;2.61;75.85;102139.66;10439127;28;20588;-60
2022/01/14 10:29:38;;;;;;;16.33;14.25;;;;;;;2.54;75.88;102129.25;10443806;28;20073;-60
2022/01/14 10:34:41;;;;;;;17.67;13.57;;;;;;;2.67;75.41;102143.06;10447475;28;20131;-60
2022/01/14 10:39:45;;;;;;;21.20;15.48;;;;;;;2.77;75.31;102131.50;10444468;28;20121;-60
2022/01/14 10:44:47;;;;;;;18.98;14.48;;;;;;;2.86;74.22;102138.38;10441633;28;20070;-60
2022/01/14 10:49:51;;;;;;;18.80;13.18;;;;;;;2.76;74.96;102121.88;10445893;28;20731;-60
2022/01/14 10:54:56;;;;;;;18.20;13.77;;;;;;;2.56;75.71;102111.72;10439149;28;20489;-60
2022/01/14 11:00:14;;;;;;;18.53;15.17;;;;;;;2.74;75.75;102114.00;10449034;28;20304;-60
2022/01/14 11:05:19;;;;;;;18.35;12.90;;;;;;;2.68;75.59;102100.13;10436609;28;20045;-58
2022/01/14 11:10:24;;;;;;;19.90;15.23;;;;;;;2.62;75.79;102082.69;10448814;28;20043;-59
2022/01/14 11:15:27;;;;;;;18.83;14.97;;;;;;;2.74;75.64;102082.44;10447020;28;20173;-60
2022/01/14 11:20:33;;;;;;;22.15;16.35;;;;;;;2.92;75.14;102072.47;10443943;28;20290;-60
2022/01/14 11:25:39;;;;;;;17.95;14.25;;;;;;;2.83;74.81;102061.22;10447772;28;20064;-62
2022/01/14 11:30:41;;;;;;;18.45;14.32;;;;;;;2.61;76.50;102054.63;10444900;28;20051;-60
2022/01/14 11:35:53;;;;;;;18.50;14.88;;;;;;;2.70;76.26;102045.72;10447802;28;20067;-60
2022/01/14 11:40:55;;;;;;;17.90;14.30;;;;;;;2.62;76.05;102041.47;10447113;28;20046;-60
2022/01/14 11:45:56;;;;;;;17.73;14.32;;;;;;;2.73;76.15;102043.03;10442911;28;20120;-60
2022/01/14 11:51:06;;;;;;;21.67;16.67;;;;;;;2.69;75.64;102034.34;10451764;28;20152;-60
2022/01/14 11:56:34;;;;;;;20.70;16.30;;;;;;;2.54;76.79;102024.97;10452669;28;20148;-61
2022/01/14 12:01:35;;;;;;;21.42;16.17;;;;;;;2.78;75.91;102026.28;10448889;28;20189;-60
2022/01/14 12:06:49;;;;;;;18.85;15.13;;;;;;;2.96;75.74;102027.66;10442952;28;20055;-60
2022/01/14 12:12:23;;;;;;;21.13;16.25;;;;;;;3.00;75.03;102031.97;10444255;28;20265;-61
2022/01/14 12:17:39;;;;;;;21.88;17.20;;;;;;;3.15;75.23;102015.00;10442913;28;20058;-61
2022/01/14 12:22:42;;;;;;;21.25;16.95;;;;;;;3.41;74.09;102010.94;10444526;28;20040;-59
2022/01/14 12:27:46;;;;;;;23.23;16.95;;;;;;;3.36;73.14;102007.50;10442031;28;20200;-61
2022/01/14 12:32:53;;;;;;;24.60;17.13;;;;;;;3.18;73.92;101999.16;10446302;28;20300;-60
2022/01/14 12:37:57;;;;;;;24.70;17.80;;;;;;;3.32;74.27;101982.19;10444692;28;20609;-60
2022/01/14 12:43:03;;;;;;;25.65;18.38;;;;;;;3.07;74.89;101973.97;10449877;28;20198;-60
2022/01/14 12:48:12;;;;;;;18.70;15.60;;;;;;;3.39;74.47;101964.47;10448844;28;20128;-61
2022/01/14 12:53:18;;;;;;;23.92;18.83;;;;;;;3.69;72.64;101960.22;10444183;28;20063;-59
2022/01/14 12:58:20;;;;;;;21.38;16.48;;;;;;;3.89;72.08;101960.63;10446928;28;20636;-60
2022/01/14 13:03:22;;;;;;;20.35;15.93;;;;;;;3.91;72.43;101957.94;10442988;28;20055;-59
2022/01/14 13:08:29;;;;;;;24.63;18.73;;;;;;;3.79;72.27;101964.38;10444495;28;20509;-60
2022/01/14 13:13:31;;;;;;;24.38;18.17;;;;;;;3.66;73.22;101955.03;10445818;28;20053;-60
2022/01/14 13:18:43;;;;;;;26.15;18.92;;;;;;;3.77;72.75;101955.66;10451992;28;20480;-61
2022/01/14 13:23:48;;;;;;;24.83;18.00;;;;;;;3.65;72.95;101961.25;10446902;28;20219;-60
2022/01/14 13:28:56;;;;;;;25.63;19.75;;;;;;;3.65;73.39;101959.47;10438601;28;20048;-61
2022/01/14 13:33:58;;;;;;;24.90;18.48;;;;;;;3.77;73.45;101952.13;10442388;28;20048;-61
2022/01/14 13:39:08;;;;;;;23.48;18.85;;;;;;;3.83;73.01;101965.19;10438780;28;20279;-60
2022/01/14 13:44:21;;;;;;;22.20;17.23;;;;;;;3.87;72.68;101962.44;10443342;28;20191;-61
2022/01/14 13:49:23;;;;;;;27.27;19.63;;;;;;;3.89;72.37;101965.03;10434712;28;20056;-60
2022/01/14 13:54:24;;;;;;;24.00;18.45;;;;;;;3.96;72.63;101986.81;10444198;28;20094;-60
2022/01/14 13:59:28;;;;;;;24.25;19.38;;;;;;;3.99;72.33;101976.19;10451329;28;20135;-60
2022/01/14 14:04:31;;;;;;;23.25;18.58;;;;;;;4.00;72.25;101983.19;10449622;28;20767;-60
2022/01/14 14:09:43;;;;;;;24.98;20.05;;;;;;;3.97;72.74;101988.53;10442157;28;20608;-59
2022/01/14 14:20:21;;;;;;;28.30;20.15;;;;;;;3.94;72.52;101978.94;10455055;28;20097;-60
2022/01/14 14:25:25;;;;;;;26.35;20.58;;;;;;;3.98;72.60;101977.97;10455524;28;20043;-60
2022/01/14 14:30:49;;;;;;;26.08;21.13;;;;;;;3.94;72.47;101971.03;10453670;28;20055;-60
2022/01/14 14:35:57;;;;;;;26.23;20.35;;;;;;;3.94;72.80;101970.19;10455662;28;20098;-60
2022/01/14 14:41:00;;;;;;;28.88;21.65;;;;;;;3.98;72.88;101963.91;10453513;28;20110;-60
2022/01/14 14:46:03;;;;;;;26.85;20.50;;;;;;;4.00;72.92;101957.69;10453313;28;20044;-60
2022/01/14 14:51:04;;;;;;;28.75;21.50;;;;;;;3.96;72.80;101958.69;10456237;28;20048;-60
2022/01/14 14:56:09;;;;;;;27.10;21.52;;;;;;;3.93;72.90;101956.13;10449442;28;20151;-60
2022/01/14 15:01:11;;;;;;;;;;;;;;;3.92;72.95;101958.78;10450805;28;20485;-60
2022/01/14 15:06:13;;;;;;;24.40;19.50;;;;;;;3.80;73.34;101955.59;10455620;28;19962;-61
2022/01/14 15:11:14;;;;;;;27.60;21.65;;;;;;;3.71;73.87;101966.34;10453448;28;20059;-61
2022/01/14 15:21:18;;;;;;;28.45;22.63;;;;;;;3.57;74.73;101952.63;10451854;28;20055;-61
2022/01/14 15:26:21;;;;;;;31.85;23.70;;;;;;;3.56;74.73;101949.16;10458250;28;20052;-59
2022/01/14 15:31:22;;;;;;;28.10;22.58;;;;;;;3.52;75.05;101950.13;10452514;28;20521;-60
2022/01/14 15:36:24;;;;;;;28.30;22.05;;;;;;;3.48;74.69;101944.06;10456456;28;20048;-60
2022/01/14 15:41:31;;;;;;;31.95;22.02;;;;;;;3.56;74.91;101933.34;10449416;28;20051;-59
2022/01/14 15:46:33;;;;;;;29.85;21.08;;;;;;;3.59;74.78;101925.38;10439087;28;20490;-59
2022/01/14 15:51:38;;;;;;;29.02;23.67;;;;;;;3.47;74.89;101921.28;10439879;28;20052;-59
2022/01/14 15:56:40;;;;;;;31.35;23.05;;;;;;;3.38;75.39;101925.88;10446004;28;20051;-59
2022/01/14 16:01:41;;;;;;;30.02;23.00;;;;;;;3.39;75.30;101928.47;10443481;28;20560;-63
2022/01/14 16:06:43;;;;;;;28.35;23.08;;;;;;;3.43;75.09;101932.78;10439853;28;20493;-60
2022/01/14 16:11:45;;;;;;;32.60;24.75;;;;;;;3.44;75.12;101923.97;10434583;28;20659;-60
2022/01/14 16:16:49;;;;;;;32.08;24.25;;;;;;;3.46;75.21;101926.56;10436531;28;20052;-60
2022/01/14 16:21:52;;;;;;;28.90;22.35;;;;;;;3.51;75.04;101922.94;10436351;28;20139;-60
2022/01/14 16:26:53;;;;;;;30.00;22.23;;;;;;;3.51;75.07;101925.56;10440577;28;20523;-59
2022/01/14 16:31:54;;;;;;;28.58;23.08;;;;;;;3.46;75.53;101922.16;10440559;28;20078;-59
2022/01/14 16:36:56;;;;;;;31.52;23.58;;;;;;;3.49;75.66;101929.97;10437787;28;20689;-60
2022/01/14 16:41:57;;;;;;;29.08;21.98;;;;;;;3.46;75.72;101934.47;10441910;28;20050;-59
2022/01/14 16:47:01;;;;;;;26.77;19.55;;;;;;;3.46;75.46;101918.69;10435765;28;20132;-61
2022/01/14 16:52:05;;;;;;;24.58;19.92;;;;;;;3.38;75.65;101926.75;10435666;28;20363;-59
2022/01/14 16:57:08;;;;;;;23.92;19.25;;;;;;;3.36;76.06;101928.53;10436958;28;20044;-60
2022/01/14 17:02:10;;;;;;;26.92;21.05;;;;;;;3.22;75.96;101920.13;10436968;28;20056;-65
2022/01/14 17:07:11;;;;;;;26.92;19.58;;;;;;;3.09;76.73;101925.66;10440705;28;20848;-61
2022/01/14 17:12:14;;;;;;;28.13;19.58;;;;;;;3.20;76.92;101933.31;10483095;23;20508;-63
2022/01/14 17:17:15;;;;;;;25.73;20.48;;;;;;;3.14;76.66;101922.94;10479614;28;20048;-63
2022/01/14 17:22:16;;;;;;;30.10;20.58;;;;;;;3.04;77.17;101926.66;10486664;28;20495;-65
2022/01/14 17:27:18;;;;;;;31.33;19.83;;;;;;;3.09;77.09;101940.56;10482744;28;20055;-65
2022/01/14 17:32:21;;;;;;;31.13;20.92;;;;;;;3.10;77.32;101937.91;10474701;28;20512;-64
2022/01/14 17:37:22;;;;;;;26.27;19.88;;;;;;;3.08;77.65;101950.25;10492726;27;20626;-64
2022/01/14 17:42:26;;;;;;;30.10;21.60;;;;;;;3.07;77.77;101955.53;10504047;28;20229;-63
2022/01/14 17:47:27;;;;;;;27.90;20.83;;;;;;;3.06;78.21;101949.41;10498963;28;20516;-63
2022/01/14 17:52:28;;;;;;;29.42;21.50;;;;;;;3.09;77.78;101945.84;10496333;28;20058;-63
2022/01/14 17:57:30;;;;;;;25.85;20.52;;;;;;;3.08;78.05;101944.97;10492641;28;20107;-64
2022/01/14 18:02:31;;;;;;;26.10;19.70;;;;;;;3.15;78.10;101946.59;10494169;28;20051;-63
2022/01/14 18:07:33;;;;;;;27.25;19.70;;;;;;;3.17;78.44;101947.41;10500607;28;20048;-64
2022/01/14 18:12:44;;;;;;;34.45;24.25;;;;;;;3.21;78.43;101955.22;10496680;28;20074;-65
2022/01/14 18:17:47;;;;;;;31.67;22.92;;;;;;;3.23;78.53;101942.88;10495396;28;20047;-65
2022/01/14 18:22:52;;;;;;;34.75;26.45;;;;;;;3.22;78.63;101946.44;10501042;27;20052;-63
2022/01/14 18:27:53;;;;;;;39.65;26.88;;;;;;;3.22;78.47;101941.19;10504581;28;20040;-63
2022/01/14 18:32:57;;;;;;;28.65;21.50;;;;;;;3.15;78.42;101945.69;10500570;27;20052;-63
2022/01/14 18:37:58;;;;;;;27.77;20.40;;;;;;;3.10;78.11;101945.81;10500390;28;20517;-62
2022/01/14 18:43:03;;;;;;;29.15;19.13;;;;;;;3.13;78.14;101944.88;10498221;27;20051;-63
2022/01/14 18:48:05;;;;;;;25.92;19.60;;;;;;;3.09;77.95;101938.84;10494810;28;20044;-64
2022/01/14 18:53:06;;;;;;;31.50;22.50;;;;;;;3.05;78.34;101933.63;10500045;28;20048;-63
2022/01/14 18:58:08;;;;;;;27.17;18.95;;;;;;;2.98;78.81;101922.41;10499686;27;20096;-63
2022/01/14 19:03:09;;;;;;;25.10;18.65;;;;;;;2.97;78.76;101920.66;10501396;28;20040;-63
2022/01/14 19:08:11;;;;;;;27.13;18.00;;;;;;;3.03;78.57;101925.78;10495215;28;20153;-64
2022/01/14 19:13:14;;;;;;;29.92;19.30;;;;;;;2.96;78.44;101906.66;10500465;28;20119;-64
2022/01/14 19:18:15;;;;;;;28.52;18.75;;;;;;;2.87;79.14;101900.72;10497448;28;20056;-64
2022/01/14 19:23:17;;;;;;;29.55;18.73;;;;;;;2.84;79.39;101912.19;10499334;27;20055;-64
2022/01/14 19:28:18;;;;;;;27.10;19.02;;;;;;;2.83;79.84;101907.81;10491295;28;20735;-63
2022/01/14 19:33:20;;;;;;;27.08;19.40;;;;;;;2.92;79.55;101906.75;10497611;28;20060;-63
2022/01/14 19:38:22;;;;;;;28.17;19.60;;;;;;;2.96;79.44;101918.94;10480260;27;20048;-65
2022/01/14 19:43:23;;;;;;;34.17;21.48;;;;;;;2.98;79.44;101919.78;10492551;28;20536;-64
2022/01/14 19:48:26;;;;;;;29.33;19.33;;;;;;;3.01;79.93;101917.91;10491423;28;20048;-63
2022/01/14 19:53:27;;;;;;;27.55;17.63;;;;;;;2.99;79.29;101908.34;10494549;28;20493;-63
2022/01/14 19:58:29;;;;;;;22.98;14.57;;;;;;;2.97;79.17;101902.25;10497331;28;20052;-63
2022/01/14 20:03:32;;;;;;;26.38;17.63;;;;;;;2.75;80.58;101900.09;10495945;28;20067;-66
2022/01/14 20:08:34;;;;;;;24.02;16.27;;;;;;;2.82;80.60;101891.19;10500393;28;20048;-63
2022/01/14 20:13:36;;;;;;;22.90;16.27;;;;;;;2.93;80.07;101879.56;10488076;27;20048;-64
2022/01/14 20:18:38;;;;;;;24.63;15.85;;;;;;;2.96;80.28;101882.13;10495876;28;20051;-64
2022/01/14 20:23:39;;;;;;;23.13;14.75;;;;;;;3.02;79.59;101874.09;10496587;28;20060;-63
2022/01/14 20:28:41;;;;;;;23.08;15.27;;;;;;;3.09;79.76;101883.56;10489571;28;20089;-63
2022/01/14 20:33:42;;;;;;;24.83;16.13;;;;;;;3.07;79.96;101882.72;10496528;28;20131;-63
2022/01/14 20:38:45;;;;;;;26.50;17.52;;;;;;;3.08;80.18;101887.09;10491910;27;20072;-64
2022/01/14 20:44:06;;;;;;;26.67;16.17;;;;;;;3.06;80.48;101880.97;10488111;27;20102;-63
2022/01/14 20:49:09;;;;;;;25.27;17.88;;;;;;;3.07;80.06;101885.34;10496666;28;20529;-66
2022/01/14 20:54:11;;;;;;;25.35;16.92;;;;;;;3.11;80.50;101880.91;10493438;27;20052;-65
2022/01/14 20:59:12;;;;;;;24.80;16.50;;;;;;;3.19;80.33;101879.78;10497136;27;20101;-65
2022/01/14 21:04:13;;;;;;;22.10;13.93;;;;;;;2.96;81.23;101871.59;10493148;28;20048;-66
2022/01/14 21:09:15;;;;;;;23.02;13.90;;;;;;;3.06;80.74;101878.34;10481384;28;20593;-64
2022/01/14 21:14:16;;;;;;;23.67;14.43;;;;;;;3.06;80.65;101859.94;10492575;28;20063;-65
2022/01/14 21:19:18;;;;;;;21.38;14.05;;;;;;;2.98;80.99;101865.38;10494945;28;20062;-64
2022/01/14 21:24:19;;;;;;;23.02;14.55;;;;;;;3.02;81.34;101855.66;10491449;28;20048;-63
2022/01/14 21:29:20;;;;;;;22.10;13.95;;;;;;;3.03;81.16;101849.47;10490524;28;20113;-63
2022/01/14 21:34:24;;;;;;;23.13;14.63;;;;;;;3.11;81.01;101844.91;10488633;28;20056;-64
2022/01/14 21:39:26;;;;;;;22.30;14.45;;;;;;;3.12;80.82;101848.41;10493580;28;20155;-63
2022/01/14 21:44:27;;;;;;;19.83;12.57;;;;;;;3.15;80.44;101850.97;10494449;28;20520;-64
2022/01/14 21:49:29;;;;;;;19.15;11.88;;;;;;;3.15;80.55;101843.06;10491731;28;20427;-62
2022/01/14 21:54:30;;;;;;;17.52;12.88;;;;;;;3.08;80.46;101850.25;10494908;28;20048;-64
2022/01/14 21:59:34;;;;;;;19.42;13.38;;;;;;;3.08;80.31;101844.09;10493424;28;20163;-65
2022/01/14 22:04:39;;;;;;;17.92;12.45;;;;;;;3.05;80.62;101838.91;10492941;28;20493;-63
2022/01/14 22:09:42;;;;;;;17.38;12.05;;;;;;;3.08;80.28;101834.47;10494184;28;20177;-64
2022/01/14 22:14:54;;;;;;;19.27;13.32;;;;;;;3.04;80.78;101830.19;10488994;28;20051;-64
2022/01/14 22:20:09;;;;;;;19.15;12.73;;;;;;;3.05;80.29;101829.28;10488826;28;20437;-67
2022/01/14 22:25:12;;;;;;;16.95;11.18;;;;;;;3.06;80.12;101823.09;10170635;28;20039;-60
2022/01/14 22:30:13;;;;;;;18.02;11.90;;;;;;;3.11;79.91;101834.41;10165834;28;20054;-61
2022/01/14 22:35:18;;;;;;;17.90;12.05;;;;;;;3.04;80.09;101811.75;10202015;28;20565;-61
2022/01/14 22:40:20;;;;;;;18.17;12.55;;;;;;;3.09;80.29;101819.53;10195692;28;20055;-61
2022/01/14 22:45:22;;;;;;;16.13;10.85;;;;;;;3.09;80.00;101812.53;10207326;28;20047;-61
2022/01/14 22:50:23;;;;;;;14.95;11.20;;;;;;;3.15;80.00;101820.28;10201226;28;20044;-61
2022/01/14 22:55:25;;;;;;;14.85;10.15;;;;;;;3.06;79.51;101807.31;10194137;28;20058;-61
2022/01/14 23:00:26;;;;;;;15.85;10.23;;;;;;;3.10;79.80;101824.75;10208884;28;21208;-60
2022/01/14 23:05:29;;;;;;;17.40;11.90;;;;;;;3.11;80.10;101826.50;10203426;28;20061;-59
2022/01/14 23:10:30;;;;;;;17.50;12.05;;;;;;;3.09;80.15;101814.28;10211307;28;20547;-63
2022/01/14 23:15:32;;;;;;;17.65;12.52;;;;;;;3.14;79.91;101834.31;10199252;28;20129;-61
2022/01/14 23:20:34;;;;;;;15.93;11.48;;;;;;;3.15;80.16;101828.16;10218940;28;20564;-62
2022/01/14 23:25:35;;;;;;;17.33;11.15;;;;;;;3.13;80.23;101831.72;10198961;28;20142;-61
2022/01/14 23:30:37;;;;;;;18.05;12.02;;;;;;;2.95;80.83;101797.06;10199578;28;20421;-61
2022/01/14 23:35:38;;;;;;;21.00;13.68;;;;;;;2.99;81.73;101809.25;10195678;28;20051;-60
2022/01/14 23:40:40;;;;;;;18.08;12.88;;;;;;;2.85;81.67;101795.53;10205797;28;20463;-61